sensor_id;sensor_type;location;lat;lon;timestamp;P1;durP1;ratioP1;P2;durP2;ratioP2
75589;SDS011;64169;47.240;11.312;2023-04-03T00:01:56;1.65;;;0.77;;
75589;SDS011;64169;47.240;11.312;2023-04-03T00:04:21;1.98;;;0.70;;
75589;SDS011;64169;47.240;11.312;2023-04-03T00:06:47;1.80;;;0.75;;
75589;SDS011;64169;47.240;11.312;2023-04-03T00:09:12;1.83;;;0.60;;
75589;SDS011;64169;47.240;11.312;2023-04-03T00:11:38;2.33;;;0.77;;
75589;SDS011;64169;47.240;11.312;2023-04-03T00:14:03;2.45;;;0.70;;
75589;SDS011;64169;47.240;11.312;2023-04-03T00:16:28;1.70;;;0.60;;
75589;SDS011;64169;47.240;11.312;2023-04-03T00:18:54;1.48;;;0.63;;
75589;SDS011;64169;47.240;11.312;2023-04-03T00:21:19;2.13;;;0.70;;
75589;SDS011;64169;47.240;11.312;2023-04-03T00:23:45;2.53;;;0.70;;
75589;SDS011;64169;47.240;11.312;2023-04-03T00:26:10;2.42;;;0.80;;
75589;SDS011;64169;47.240;11.312;2023-04-03T00:28:36;1.38;;;0.50;;
75589;SDS011;64169;47.240;11.312;2023-04-03T00:31:01;2.28;;;0.80;;
75589;SDS011;64169;47.240;11.312;2023-04-03T00:33:27;1.83;;;0.60;;
75589;SDS011;64169;47.240;11.312;2023-04-03T00:35:52;1.92;;;0.30;;
75589;SDS011;64169;47.240;11.312;2023-04-03T00:38:18;0.85;;;0.40;;
75589;SDS011;64169;47.240;11.312;2023-04-03T00:40:44;1.75;;;0.50;;
75589;SDS011;64169;47.240;11.312;2023-04-03T00:43:14;0.77;;;0.30;;
75589;SDS011;64169;47.240;11.312;2023-04-03T00:45:51;1.17;;;0.43;;
75589;SDS011;64169;47.240;11.312;2023-04-03T00:48:36;1.58;;;0.52;;
75589;SDS011;64169;47.240;11.312;2023-04-03T00:51:03;0.73;;;0.40;;
75589;SDS011;64169;47.240;11.312;2023-04-03T00:53:31;2.28;;;0.65;;
75589;SDS011;64169;47.240;11.312;2023-04-03T00:55:59;1.20;;;0.55;;
75589;SDS011;64169;47.240;11.312;2023-04-03T00:58:32;2.00;;;0.60;;
75589;SDS011;64169;47.240;11.312;2023-04-03T01:00:59;2.05;;;0.60;;
75589;SDS011;64169;47.240;11.312;2023-04-03T01:03:29;2.05;;;0.50;;
75589;SDS011;64169;47.240;11.312;2023-04-03T01:05:56;0.98;;;0.43;;
75589;SDS011;64169;47.240;11.312;2023-04-03T01:08:21;1.67;;;0.63;;
75589;SDS011;64169;47.240;11.312;2023-04-03T01:10:47;2.10;;;0.63;;
75589;SDS011;64169;47.240;11.312;2023-04-03T01:15:52;2.28;;;0.77;;
75589;SDS011;64169;47.240;11.312;2023-04-03T01:18:17;1.92;;;0.65;;
75589;SDS011;64169;47.240;11.312;2023-04-03T01:20:48;1.65;;;0.60;;
75589;SDS011;64169;47.240;11.312;2023-04-03T01:23:30;2.33;;;0.70;;
75589;SDS011;64169;47.240;11.312;2023-04-03T01:26:02;1.48;;;0.50;;
75589;SDS011;64169;47.240;11.312;2023-04-03T01:28:29;1.80;;;0.45;;
75589;SDS011;64169;47.240;11.312;2023-04-03T01:31:06;1.92;;;0.60;;
75589;SDS011;64169;47.240;11.312;2023-04-03T01:33:53;0.90;;;0.47;;
75589;SDS011;64169;47.240;11.312;2023-04-03T01:36:26;2.10;;;0.65;;
75589;SDS011;64169;47.240;11.312;2023-04-03T01:38:54;1.20;;;0.50;;
75589;SDS011;64169;47.240;11.312;2023-04-03T01:41:20;2.03;;;0.73;;
75589;SDS011;64169;47.240;11.312;2023-04-03T01:43:46;1.65;;;0.60;;
75589;SDS011;64169;47.240;11.312;2023-04-03T01:46:13;1.75;;;0.55;;
75589;SDS011;64169;47.240;11.312;2023-04-03T01:48:39;0.85;;;0.45;;
75589;SDS011;64169;47.240;11.312;2023-04-03T01:51:05;1.90;;;0.63;;
75589;SDS011;64169;47.240;11.312;2023-04-03T01:53:30;1.48;;;0.55;;
75589;SDS011;64169;47.240;11.312;2023-04-03T01:55:56;3.08;;;0.82;;
75589;SDS011;64169;47.240;11.312;2023-04-03T01:58:21;1.42;;;0.47;;
75589;SDS011;64169;47.240;11.312;2023-04-03T02:00:47;1.15;;;0.50;;
75589;SDS011;64169;47.240;11.312;2023-04-03T02:03:13;1.17;;;0.40;;
75589;SDS011;64169;47.240;11.312;2023-04-03T02:05:38;1.85;;;0.52;;
75589;SDS011;64169;47.240;11.312;2023-04-03T02:08:04;1.35;;;0.50;;
75589;SDS011;64169;47.240;11.312;2023-04-03T02:10:29;1.35;;;0.60;;
75589;SDS011;64169;47.240;11.312;2023-04-03T02:12:55;1.85;;;0.70;;
75589;SDS011;64169;47.240;11.312;2023-04-03T02:15:20;1.70;;;0.50;;
75589;SDS011;64169;47.240;11.312;2023-04-03T02:17:46;1.67;;;0.50;;
75589;SDS011;64169;47.240;11.312;2023-04-03T02:20:11;1.52;;;0.60;;
75589;SDS011;64169;47.240;11.312;2023-04-03T02:22:37;1.20;;;0.47;;
75589;SDS011;64169;47.240;11.312;2023-04-03T02:25:02;1.60;;;0.60;;
75589;SDS011;64169;47.240;11.312;2023-04-03T02:27:28;1.65;;;0.60;;
75589;SDS011;64169;47.240;11.312;2023-04-03T02:29:53;1.77;;;0.65;;
75589;SDS011;64169;47.240;11.312;2023-04-03T02:32:19;1.75;;;0.70;;
75589;SDS011;64169;47.240;11.312;2023-04-03T02:34:45;1.33;;;0.60;;
75589;SDS011;64169;47.240;11.312;2023-04-03T02:37:10;2.38;;;0.88;;
75589;SDS011;64169;47.240;11.312;2023-04-03T02:39:36;2.97;;;0.88;;
75589;SDS011;64169;47.240;11.312;2023-04-03T02:42:01;2.13;;;0.40;;
75589;SDS011;64169;47.240;11.312;2023-04-03T02:44:27;1.42;;;0.60;;
75589;SDS011;64169;47.240;11.312;2023-04-03T02:46:52;2.00;;;0.65;;
75589;SDS011;64169;47.240;11.312;2023-04-03T02:49:18;1.70;;;0.68;;
75589;SDS011;64169;47.240;11.312;2023-04-03T02:51:43;3.13;;;0.88;;
75589;SDS011;64169;47.240;11.312;2023-04-03T02:54:09;2.40;;;0.93;;
75589;SDS011;64169;47.240;11.312;2023-04-03T02:56:35;3.03;;;0.85;;
75589;SDS011;64169;47.240;11.312;2023-04-03T02:59:00;1.77;;;0.60;;
75589;SDS011;64169;47.240;11.312;2023-04-03T03:01:25;2.20;;;0.80;;
75589;SDS011;64169;47.240;11.312;2023-04-03T03:03:53;3.03;;;0.80;;
75589;SDS011;64169;47.240;11.312;2023-04-03T03:06:19;3.00;;;0.98;;
75589;SDS011;64169;47.240;11.312;2023-04-03T03:08:44;2.60;;;0.73;;
75589;SDS011;64169;47.240;11.312;2023-04-03T03:11:10;3.30;;;0.90;;
75589;SDS011;64169;47.240;11.312;2023-04-03T03:13:35;2.55;;;0.73;;
75589;SDS011;64169;47.240;11.312;2023-04-03T03:16:01;1.65;;;0.52;;
75589;SDS011;64169;47.240;11.312;2023-04-03T03:18:27;2.13;;;0.63;;
75589;SDS011;64169;47.240;11.312;2023-04-03T03:20:53;3.00;;;0.80;;
75589;SDS011;64169;47.240;11.312;2023-04-03T03:23:20;4.28;;;1.00;;
75589;SDS011;64169;47.240;11.312;2023-04-03T03:25:46;2.28;;;0.80;;
75589;SDS011;64169;47.240;11.312;2023-04-03T03:28:12;2.58;;;0.80;;
75589;SDS011;64169;47.240;11.312;2023-04-03T03:30:37;3.35;;;1.05;;
75589;SDS011;64169;47.240;11.312;2023-04-03T03:33:03;3.15;;;0.95;;
75589;SDS011;64169;47.240;11.312;2023-04-03T03:35:28;2.60;;;0.90;;
75589;SDS011;64169;47.240;11.312;2023-04-03T03:37:54;2.80;;;1.00;;
75589;SDS011;64169;47.240;11.312;2023-04-03T03:40:19;3.90;;;1.08;;
75589;SDS011;64169;47.240;11.312;2023-04-03T03:42:45;2.20;;;0.80;;
75589;SDS011;64169;47.240;11.312;2023-04-03T03:45:10;3.45;;;1.20;;
75589;SDS011;64169;47.240;11.312;2023-04-03T03:47:36;3.33;;;1.17;;
75589;SDS011;64169;47.240;11.312;2023-04-03T03:50:02;3.83;;;1.10;;
75589;SDS011;64169;47.240;11.312;2023-04-03T03:52:28;3.60;;;1.20;;
75589;SDS011;64169;47.240;11.312;2023-04-03T03:54:54;3.58;;;1.10;;
75589;SDS011;64169;47.240;11.312;2023-04-03T03:57:20;3.42;;;1.00;;
75589;SDS011;64169;47.240;11.312;2023-04-03T03:59:46;3.70;;;1.30;;
75589;SDS011;64169;47.240;11.312;2023-04-03T04:02:12;3.15;;;1.05;;
75589;SDS011;64169;47.240;11.312;2023-04-03T04:04:37;3.97;;;1.40;;
75589;SDS011;64169;47.240;11.312;2023-04-03T04:07:03;3.55;;;1.08;;
75589;SDS011;64169;47.240;11.312;2023-04-03T04:09:28;3.53;;;1.02;;
75589;SDS011;64169;47.240;11.312;2023-04-03T04:11:54;4.70;;;1.77;;
75589;SDS011;64169;47.240;11.312;2023-04-03T04:14:19;4.13;;;1.42;;
75589;SDS011;64169;47.240;11.312;2023-04-03T04:16:48;3.40;;;1.15;;
75589;SDS011;64169;47.240;11.312;2023-04-03T04:19:13;4.28;;;1.40;;
75589;SDS011;64169;47.240;11.312;2023-04-03T04:21:39;3.70;;;1.33;;
75589;SDS011;64169;47.240;11.312;2023-04-03T04:24:05;3.75;;;1.33;;
75589;SDS011;64169;47.240;11.312;2023-04-03T04:26:31;3.83;;;1.35;;
75589;SDS011;64169;47.240;11.312;2023-04-03T04:28:56;5.10;;;1.80;;
75589;SDS011;64169;47.240;11.312;2023-04-03T04:31:22;4.75;;;1.65;;
75589;SDS011;64169;47.240;11.312;2023-04-03T04:33:47;4.40;;;1.50;;
75589;SDS011;64169;47.240;11.312;2023-04-03T04:36:13;4.90;;;1.92;;
75589;SDS011;64169;47.240;11.312;2023-04-03T04:38:39;5.28;;;1.77;;
75589;SDS011;64169;47.240;11.312;2023-04-03T04:41:05;5.57;;;1.85;;
75589;SDS011;64169;47.240;11.312;2023-04-03T04:43:31;5.88;;;2.13;;
75589;SDS011;64169;47.240;11.312;2023-04-03T04:46:03;5.53;;;1.90;;
75589;SDS011;64169;47.240;11.312;2023-04-03T04:48:30;6.53;;;2.05;;
75589;SDS011;64169;47.240;11.312;2023-04-03T04:50:55;7.88;;;3.05;;
75589;SDS011;64169;47.240;11.312;2023-04-03T04:53:21;8.60;;;3.10;;
75589;SDS011;64169;47.240;11.312;2023-04-03T04:55:46;7.93;;;3.22;;
75589;SDS011;64169;47.240;11.312;2023-04-03T04:58:12;6.72;;;2.03;;
75589;SDS011;64169;47.240;11.312;2023-04-03T05:00:38;5.95;;;2.20;;
75589;SDS011;64169;47.240;11.312;2023-04-03T05:03:03;6.40;;;2.75;;
75589;SDS011;64169;47.240;11.312;2023-04-03T05:05:29;5.72;;;2.20;;
75589;SDS011;64169;47.240;11.312;2023-04-03T05:07:54;5.13;;;1.75;;
75589;SDS011;64169;47.240;11.312;2023-04-03T05:10:20;7.32;;;2.70;;
75589;SDS011;64169;47.240;11.312;2023-04-03T05:12:45;6.80;;;2.63;;
75589;SDS011;64169;47.240;11.312;2023-04-03T05:15:11;6.55;;;2.25;;
75589;SDS011;64169;47.240;11.312;2023-04-03T05:17:36;5.93;;;2.70;;
75589;SDS011;64169;47.240;11.312;2023-04-03T05:20:02;7.35;;;2.10;;
75589;SDS011;64169;47.240;11.312;2023-04-03T05:22:29;5.57;;;2.05;;
75589;SDS011;64169;47.240;11.312;2023-04-03T05:24:55;5.18;;;1.70;;
75589;SDS011;64169;47.240;11.312;2023-04-03T05:27:20;5.63;;;2.22;;
75589;SDS011;64169;47.240;11.312;2023-04-03T05:29:46;6.05;;;2.00;;
75589;SDS011;64169;47.240;11.312;2023-04-03T05:32:11;5.20;;;1.77;;
75589;SDS011;64169;47.240;11.312;2023-04-03T05:34:37;7.05;;;2.35;;
75589;SDS011;64169;47.240;11.312;2023-04-03T05:37:02;6.53;;;2.30;;
75589;SDS011;64169;47.240;11.312;2023-04-03T05:39:29;5.30;;;1.85;;
75589;SDS011;64169;47.240;11.312;2023-04-03T05:41:56;6.10;;;2.30;;
75589;SDS011;64169;47.240;11.312;2023-04-03T05:44:22;6.40;;;2.15;;
75589;SDS011;64169;47.240;11.312;2023-04-03T05:46:47;6.45;;;2.30;;
75589;SDS011;64169;47.240;11.312;2023-04-03T05:49:13;6.00;;;2.47;;
75589;SDS011;64169;47.240;11.312;2023-04-03T05:51:38;8.50;;;3.10;;
75589;SDS011;64169;47.240;11.312;2023-04-03T05:54:24;6.43;;;2.40;;
75589;SDS011;64169;47.240;11.312;2023-04-03T05:56:51;6.50;;;2.53;;
75589;SDS011;64169;47.240;11.312;2023-04-03T05:59:17;7.22;;;2.25;;
75589;SDS011;64169;47.240;11.312;2023-04-03T06:01:43;6.32;;;2.13;;
75589;SDS011;64169;47.240;11.312;2023-04-03T06:04:08;6.25;;;2.55;;
75589;SDS011;64169;47.240;11.312;2023-04-03T06:09:09;7.05;;;2.80;;
75589;SDS011;64169;47.240;11.312;2023-04-03T06:11:34;6.65;;;2.20;;
75589;SDS011;64169;47.240;11.312;2023-04-03T06:14:00;7.03;;;2.60;;
75589;SDS011;64169;47.240;11.312;2023-04-03T06:16:26;8.02;;;2.72;;
75589;SDS011;64169;47.240;11.312;2023-04-03T06:18:51;6.95;;;2.53;;
75589;SDS011;64169;47.240;11.312;2023-04-03T06:21:17;6.88;;;2.42;;
75589;SDS011;64169;47.240;11.312;2023-04-03T06:23:42;6.50;;;2.33;;
75589;SDS011;64169;47.240;11.312;2023-04-03T06:26:07;6.45;;;2.10;;
75589;SDS011;64169;47.240;11.312;2023-04-03T06:28:33;5.93;;;2.30;;
75589;SDS011;64169;47.240;11.312;2023-04-03T06:30:58;7.93;;;2.47;;
75589;SDS011;64169;47.240;11.312;2023-04-03T06:33:24;7.75;;;2.88;;
75589;SDS011;64169;47.240;11.312;2023-04-03T06:35:54;7.55;;;2.58;;
75589;SDS011;64169;47.240;11.312;2023-04-03T06:38:21;6.28;;;1.88;;
75589;SDS011;64169;47.240;11.312;2023-04-03T06:40:47;6.88;;;2.25;;
75589;SDS011;64169;47.240;11.312;2023-04-03T06:43:12;7.53;;;2.60;;
75589;SDS011;64169;47.240;11.312;2023-04-03T06:45:38;7.60;;;2.22;;
75589;SDS011;64169;47.240;11.312;2023-04-03T06:48:03;9.57;;;3.05;;
75589;SDS011;64169;47.240;11.312;2023-04-03T06:50:29;7.20;;;2.45;;
75589;SDS011;64169;47.240;11.312;2023-04-03T06:52:54;5.90;;;2.17;;
75589;SDS011;64169;47.240;11.312;2023-04-03T06:55:19;7.15;;;2.75;;
75589;SDS011;64169;47.240;11.312;2023-04-03T06:57:45;8.60;;;3.00;;
75589;SDS011;64169;47.240;11.312;2023-04-03T07:00:11;6.82;;;3.03;;
75589;SDS011;64169;47.240;11.312;2023-04-03T07:02:37;8.70;;;3.03;;
75589;SDS011;64169;47.240;11.312;2023-04-03T07:05:02;7.32;;;2.55;;
75589;SDS011;64169;47.240;11.312;2023-04-03T07:07:28;7.57;;;2.35;;
75589;SDS011;64169;47.240;11.312;2023-04-03T07:09:53;7.47;;;2.97;;
75589;SDS011;64169;47.240;11.312;2023-04-03T07:12:19;7.32;;;2.78;;
75589;SDS011;64169;47.240;11.312;2023-04-03T07:14:44;6.15;;;2.15;;
75589;SDS011;64169;47.240;11.312;2023-04-03T07:17:10;6.60;;;2.30;;
75589;SDS011;64169;47.240;11.312;2023-04-03T07:19:36;7.28;;;2.28;;
75589;SDS011;64169;47.240;11.312;2023-04-03T07:22:01;6.50;;;2.53;;
75589;SDS011;64169;47.240;11.312;2023-04-03T07:24:27;6.90;;;2.38;;
75589;SDS011;64169;47.240;11.312;2023-04-03T07:26:52;6.20;;;2.33;;
75589;SDS011;64169;47.240;11.312;2023-04-03T07:29:18;7.47;;;2.65;;
75589;SDS011;64169;47.240;11.312;2023-04-03T07:31:46;6.10;;;2.35;;
75589;SDS011;64169;47.240;11.312;2023-04-03T07:34:12;5.80;;;2.47;;
75589;SDS011;64169;47.240;11.312;2023-04-03T07:36:37;6.60;;;2.58;;
75589;SDS011;64169;47.240;11.312;2023-04-03T07:39:03;6.47;;;2.33;;
75589;SDS011;64169;47.240;11.312;2023-04-03T07:41:28;6.93;;;2.47;;
75589;SDS011;64169;47.240;11.312;2023-04-03T07:43:55;6.93;;;2.33;;
75589;SDS011;64169;47.240;11.312;2023-04-03T07:46:21;5.93;;;2.17;;
75589;SDS011;64169;47.240;11.312;2023-04-03T07:48:47;7.40;;;2.70;;
75589;SDS011;64169;47.240;11.312;2023-04-03T07:51:12;8.70;;;2.85;;
75589;SDS011;64169;47.240;11.312;2023-04-03T07:53:38;7.55;;;2.78;;
75589;SDS011;64169;47.240;11.312;2023-04-03T07:56:04;7.57;;;2.85;;
75589;SDS011;64169;47.240;11.312;2023-04-03T07:58:30;9.38;;;2.55;;
75589;SDS011;64169;47.240;11.312;2023-04-03T08:00:56;6.53;;;2.20;;
75589;SDS011;64169;47.240;11.312;2023-04-03T08:03:21;5.45;;;2.25;;
75589;SDS011;64169;47.240;11.312;2023-04-03T08:05:48;7.72;;;2.45;;
75589;SDS011;64169;47.240;11.312;2023-04-03T08:08:15;6.80;;;2.60;;
75589;SDS011;64169;47.240;11.312;2023-04-03T08:10:47;8.02;;;2.50;;
75589;SDS011;64169;47.240;11.312;2023-04-03T08:13:16;7.15;;;2.58;;
75589;SDS011;64169;47.240;11.312;2023-04-03T08:15:42;5.72;;;2.17;;
75589;SDS011;64169;47.240;11.312;2023-04-03T08:18:07;7.30;;;2.92;;
75589;SDS011;64169;47.240;11.312;2023-04-03T08:20:33;6.80;;;2.75;;
75589;SDS011;64169;47.240;11.312;2023-04-03T08:22:58;7.25;;;2.80;;
75589;SDS011;64169;47.240;11.312;2023-04-03T08:25:23;7.63;;;3.13;;
75589;SDS011;64169;47.240;11.312;2023-04-03T08:27:49;8.65;;;3.40;;
75589;SDS011;64169;47.240;11.312;2023-04-03T08:30:15;7.05;;;3.25;;
75589;SDS011;64169;47.240;11.312;2023-04-03T08:32:41;5.30;;;2.10;;
75589;SDS011;64169;47.240;11.312;2023-04-03T08:35:08;7.47;;;2.70;;
75589;SDS011;64169;47.240;11.312;2023-04-03T08:37:37;6.75;;;2.90;;
75589;SDS011;64169;47.240;11.312;2023-04-03T08:40:04;6.78;;;2.50;;
75589;SDS011;64169;47.240;11.312;2023-04-03T08:45:10;6.57;;;2.70;;
75589;SDS011;64169;47.240;11.312;2023-04-03T08:50:15;5.68;;;1.90;;
75589;SDS011;64169;47.240;11.312;2023-04-03T08:52:46;5.90;;;2.35;;
75589;SDS011;64169;47.240;11.312;2023-04-03T08:57:42;6.03;;;2.38;;
75589;SDS011;64169;47.240;11.312;2023-04-03T09:02:41;5.47;;;2.10;;
75589;SDS011;64169;47.240;11.312;2023-04-03T09:05:13;5.75;;;2.15;;
75589;SDS011;64169;47.240;11.312;2023-04-03T09:07:49;5.95;;;2.42;;
75589;SDS011;64169;47.240;11.312;2023-04-03T09:10:27;5.97;;;2.33;;
75589;SDS011;64169;47.240;11.312;2023-04-03T09:12:57;7.15;;;2.50;;
75589;SDS011;64169;47.240;11.312;2023-04-03T09:15:29;5.13;;;1.83;;
75589;SDS011;64169;47.240;11.312;2023-04-03T09:23:30;5.80;;;2.50;;
75589;SDS011;64169;47.240;11.312;2023-04-03T09:26:05;5.90;;;2.35;;
75589;SDS011;64169;47.240;11.312;2023-04-03T09:28:37;6.35;;;1.90;;
75589;SDS011;64169;47.240;11.312;2023-04-03T09:31:38;5.10;;;1.90;;
75589;SDS011;64169;47.240;11.312;2023-04-03T09:34:02;6.05;;;2.08;;
75589;SDS011;64169;47.240;11.312;2023-04-03T09:36:39;6.00;;;2.17;;
75589;SDS011;64169;47.240;11.312;2023-04-03T09:39:07;5.53;;;1.90;;
75589;SDS011;64169;47.240;11.312;2023-04-03T09:41:36;4.85;;;1.98;;
75589;SDS011;64169;47.240;11.312;2023-04-03T09:44:01;5.68;;;2.35;;
75589;SDS011;64169;47.240;11.312;2023-04-03T09:46:31;5.18;;;2.08;;
75589;SDS011;64169;47.240;11.312;2023-04-03T09:48:59;5.18;;;1.70;;
75589;SDS011;64169;47.240;11.312;2023-04-03T09:51:27;5.38;;;2.00;;
75589;SDS011;64169;47.240;11.312;2023-04-03T09:53:54;6.43;;;2.83;;
75589;SDS011;64169;47.240;11.312;2023-04-03T09:56:24;8.52;;;3.28;;
75589;SDS011;64169;47.240;11.312;2023-04-03T10:01:28;13.82;;;4.90;;
75589;SDS011;64169;47.240;11.312;2023-04-03T10:04:03;14.20;;;5.47;;
75589;SDS011;64169;47.240;11.312;2023-04-03T10:06:43;7.15;;;2.80;;
75589;SDS011;64169;47.240;11.312;2023-04-03T10:14:35;5.72;;;2.30;;
75589;SDS011;64169;47.240;11.312;2023-04-03T10:19:57;5.82;;;2.22;;
75589;SDS011;64169;47.240;11.312;2023-04-03T10:25:15;4.53;;;1.75;;
75589;SDS011;64169;47.240;11.312;2023-04-03T10:39:46;4.90;;;1.45;;
75589;SDS011;64169;47.240;11.312;2023-04-03T10:42:33;6.25;;;1.92;;
75589;SDS011;64169;47.240;11.312;2023-04-03T10:47:47;5.38;;;2.08;;
75589;SDS011;64169;47.240;11.312;2023-04-03T10:53:27;4.47;;;1.75;;
75589;SDS011;64169;47.240;11.312;2023-04-03T10:56:17;5.82;;;2.05;;
75589;SDS011;64169;47.240;11.312;2023-04-03T10:58:54;3.92;;;1.50;;
75589;SDS011;64169;47.240;11.312;2023-04-03T11:01:41;5.22;;;2.10;;
75589;SDS011;64169;47.240;11.312;2023-04-03T11:04:07;5.00;;;1.85;;
75589;SDS011;64169;47.240;11.312;2023-04-03T11:06:39;5.05;;;1.98;;
75589;SDS011;64169;47.240;11.312;2023-04-03T11:12:02;5.10;;;1.80;;
75589;SDS011;64169;47.240;11.312;2023-04-03T11:14:31;4.15;;;1.70;;
75589;SDS011;64169;47.240;11.312;2023-04-03T11:19:33;5.45;;;1.95;;
75589;SDS011;64169;47.240;11.312;2023-04-03T11:25:37;5.57;;;2.35;;
75589;SDS011;64169;47.240;11.312;2023-04-03T11:27:51;5.82;;;2.25;;
75589;SDS011;64169;47.240;11.312;2023-04-03T11:36:10;6.40;;;2.53;;
75589;SDS011;64169;47.240;11.312;2023-04-03T11:38:41;8.60;;;2.15;;
75589;SDS011;64169;47.240;11.312;2023-04-03T11:41:09;6.63;;;2.13;;
75589;SDS011;64169;47.240;11.312;2023-04-03T11:43:40;5.47;;;2.30;;
75589;SDS011;64169;47.240;11.312;2023-04-03T11:46:07;4.70;;;1.58;;
75589;SDS011;64169;47.240;11.312;2023-04-03T11:51:37;4.57;;;1.90;;
75589;SDS011;64169;47.240;11.312;2023-04-03T11:53:53;4.43;;;1.90;;
75589;SDS011;64169;47.240;11.312;2023-04-03T12:01:48;4.80;;;1.63;;
75589;SDS011;64169;47.240;11.312;2023-04-03T12:04:15;5.15;;;1.83;;
75589;SDS011;64169;47.240;11.312;2023-04-03T12:14:54;5.63;;;1.80;;
75589;SDS011;64169;47.240;11.312;2023-04-03T12:17:22;4.60;;;1.58;;
75589;SDS011;64169;47.240;11.312;2023-04-03T12:19:51;4.60;;;1.70;;
75589;SDS011;64169;47.240;11.312;2023-04-03T12:22:17;4.88;;;1.83;;
75589;SDS011;64169;47.240;11.312;2023-04-03T12:24:46;5.40;;;2.13;;
75589;SDS011;64169;47.240;11.312;2023-04-03T12:27:26;6.07;;;2.05;;
75589;SDS011;64169;47.240;11.312;2023-04-03T12:32:42;4.28;;;1.60;;
75589;SDS011;64169;47.240;11.312;2023-04-03T12:35:30;4.28;;;1.83;;
75589;SDS011;64169;47.240;11.312;2023-04-03T12:44:07;4.72;;;1.48;;
75589;SDS011;64169;47.240;11.312;2023-04-03T12:46:36;4.75;;;1.50;;
75589;SDS011;64169;47.240;11.312;2023-04-03T12:51:54;4.72;;;1.70;;
75589;SDS011;64169;47.240;11.312;2023-04-03T12:54:22;5.10;;;1.58;;
75589;SDS011;64169;47.240;11.312;2023-04-03T12:56:50;4.45;;;1.65;;
75589;SDS011;64169;47.240;11.312;2023-04-03T12:59:23;4.57;;;1.90;;
75589;SDS011;64169;47.240;11.312;2023-04-03T13:01:55;4.22;;;1.52;;
75589;SDS011;64169;47.240;11.312;2023-04-03T13:04:21;4.50;;;1.73;;
75589;SDS011;64169;47.240;11.312;2023-04-03T13:06:47;5.25;;;2.03;;
75589;SDS011;64169;47.240;11.312;2023-04-03T13:09:23;6.90;;;1.85;;
75589;SDS011;64169;47.240;11.312;2023-04-03T13:11:51;4.60;;;1.63;;
75589;SDS011;64169;47.240;11.312;2023-04-03T13:14:28;4.85;;;1.35;;
75589;SDS011;64169;47.240;11.312;2023-04-03T13:19:53;4.28;;;1.52;;
75589;SDS011;64169;47.240;11.312;2023-04-03T13:24:57;4.57;;;1.40;;
75589;SDS011;64169;47.240;11.312;2023-04-03T13:27:24;5.30;;;1.67;;
75589;SDS011;64169;47.240;11.312;2023-04-03T13:29:51;6.20;;;1.77;;
75589;SDS011;64169;47.240;11.312;2023-04-03T13:32:19;5.43;;;1.90;;
75589;SDS011;64169;47.240;11.312;2023-04-03T13:34:47;5.35;;;1.70;;
75589;SDS011;64169;47.240;11.312;2023-04-03T13:37:20;4.68;;;1.42;;
75589;SDS011;64169;47.240;11.312;2023-04-03T13:40:11;4.75;;;1.52;;
75589;SDS011;64169;47.240;11.312;2023-04-03T13:42:38;3.67;;;1.35;;
75589;SDS011;64169;47.240;11.312;2023-04-03T13:45:25;3.78;;;1.30;;
75589;SDS011;64169;47.240;11.312;2023-04-03T13:48:40;3.90;;;1.45;;
75589;SDS011;64169;47.240;11.312;2023-04-03T13:50:50;8.73;;;2.45;;
75589;SDS011;64169;47.240;11.312;2023-04-03T13:53:27;6.82;;;1.85;;
75589;SDS011;64169;47.240;11.312;2023-04-03T13:55:56;4.28;;;1.80;;
75589;SDS011;64169;47.240;11.312;2023-04-03T13:58:28;6.82;;;2.63;;
75589;SDS011;64169;47.240;11.312;2023-04-03T14:01:09;10.10;;;5.22;;
75589;SDS011;64169;47.240;11.312;2023-04-03T14:03:43;6.38;;;2.63;;
75589;SDS011;64169;47.240;11.312;2023-04-03T14:06:14;7.47;;;2.72;;
75589;SDS011;64169;47.240;11.312;2023-04-03T14:08:40;6.57;;;3.38;;
75589;SDS011;64169;47.240;11.312;2023-04-03T14:11:08;8.07;;;4.30;;
75589;SDS011;64169;47.240;11.312;2023-04-03T14:13:53;7.20;;;4.30;;
75589;SDS011;64169;47.240;11.312;2023-04-03T14:16:22;7.57;;;3.05;;
75589;SDS011;64169;47.240;11.312;2023-04-03T14:18:49;5.70;;;2.85;;
75589;SDS011;64169;47.240;11.312;2023-04-03T14:21:16;4.88;;;2.03;;
75589;SDS011;64169;47.240;11.312;2023-04-03T14:23:43;4.57;;;1.50;;
75589;SDS011;64169;47.240;11.312;2023-04-03T14:26:16;5.45;;;2.45;;
75589;SDS011;64169;47.240;11.312;2023-04-03T14:28:43;5.35;;;2.30;;
75589;SDS011;64169;47.240;11.312;2023-04-03T14:31:13;6.07;;;1.90;;
75589;SDS011;64169;47.240;11.312;2023-04-03T14:33:39;4.93;;;1.88;;
75589;SDS011;64169;47.240;11.312;2023-04-03T14:36:16;5.22;;;1.73;;
75589;SDS011;64169;47.240;11.312;2023-04-03T14:38:47;4.93;;;2.10;;
75589;SDS011;64169;47.240;11.312;2023-04-03T14:41:14;5.80;;;1.70;;
75589;SDS011;64169;47.240;11.312;2023-04-03T14:43:41;5.45;;;1.90;;
75589;SDS011;64169;47.240;11.312;2023-04-03T14:46:49;4.55;;;1.83;;
75589;SDS011;64169;47.240;11.312;2023-04-03T14:49:03;5.07;;;1.60;;
75589;SDS011;64169;47.240;11.312;2023-04-03T14:51:34;5.93;;;1.77;;
75589;SDS011;64169;47.240;11.312;2023-04-03T14:53:59;5.78;;;1.50;;
75589;SDS011;64169;47.240;11.312;2023-04-03T14:56:26;4.88;;;1.80;;
75589;SDS011;64169;47.240;11.312;2023-04-03T14:58:57;6.22;;;1.73;;
75589;SDS011;64169;47.240;11.312;2023-04-03T15:01:25;6.03;;;1.83;;
75589;SDS011;64169;47.240;11.312;2023-04-03T15:03:51;4.43;;;1.25;;
75589;SDS011;64169;47.240;11.312;2023-04-03T15:06:16;5.07;;;2.00;;
75589;SDS011;64169;47.240;11.312;2023-04-03T15:08:42;6.00;;;2.63;;
75589;SDS011;64169;47.240;11.312;2023-04-03T15:11:09;5.38;;;2.25;;
75589;SDS011;64169;47.240;11.312;2023-04-03T15:13:35;4.22;;;1.70;;
75589;SDS011;64169;47.240;11.312;2023-04-03T15:16:01;5.68;;;2.08;;
75589;SDS011;64169;47.240;11.312;2023-04-03T15:18:27;5.28;;;2.05;;
75589;SDS011;64169;47.240;11.312;2023-04-03T15:20:53;4.75;;;1.60;;
75589;SDS011;64169;47.240;11.312;2023-04-03T15:23:19;4.53;;;1.77;;
75589;SDS011;64169;47.240;11.312;2023-04-03T15:25:46;5.13;;;1.73;;
75589;SDS011;64169;47.240;11.312;2023-04-03T15:28:16;4.55;;;1.60;;
75589;SDS011;64169;47.240;11.312;2023-04-03T15:31:03;4.30;;;1.45;;
75589;SDS011;64169;47.240;11.312;2023-04-03T15:33:29;4.10;;;1.40;;
75589;SDS011;64169;47.240;11.312;2023-04-03T15:35:55;4.78;;;1.60;;
75589;SDS011;64169;47.240;11.312;2023-04-03T15:38:20;4.70;;;1.63;;
75589;SDS011;64169;47.240;11.312;2023-04-03T15:40:46;4.70;;;1.55;;
75589;SDS011;64169;47.240;11.312;2023-04-03T15:43:15;5.40;;;1.50;;
75589;SDS011;64169;47.240;11.312;2023-04-03T15:45:41;4.20;;;1.67;;
75589;SDS011;64169;47.240;11.312;2023-04-03T15:48:06;4.60;;;1.63;;
75589;SDS011;64169;47.240;11.312;2023-04-03T15:50:33;5.20;;;1.60;;
75589;SDS011;64169;47.240;11.312;2023-04-03T15:52:59;6.00;;;1.95;;
75589;SDS011;64169;47.240;11.312;2023-04-03T15:55:27;4.07;;;1.55;;
75589;SDS011;64169;47.240;11.312;2023-04-03T15:57:54;4.68;;;1.73;;
75589;SDS011;64169;47.240;11.312;2023-04-03T16:00:20;6.35;;;1.90;;
75589;SDS011;64169;47.240;11.312;2023-04-03T16:02:47;4.70;;;1.90;;
75589;SDS011;64169;47.240;11.312;2023-04-03T16:05:13;5.25;;;1.73;;
75589;SDS011;64169;47.240;11.312;2023-04-03T16:07:40;6.95;;;2.88;;
75589;SDS011;64169;47.240;11.312;2023-04-03T16:10:06;10.13;;;3.55;;
75589;SDS011;64169;47.240;11.312;2023-04-03T16:12:33;6.15;;;2.38;;
75589;SDS011;64169;47.240;11.312;2023-04-03T16:14:58;6.00;;;2.28;;
75589;SDS011;64169;47.240;11.312;2023-04-03T16:17:24;8.40;;;4.05;;
75589;SDS011;64169;47.240;11.312;2023-04-03T16:19:51;6.30;;;2.08;;